sensor_id;sensor_type;location;lat;lon;timestamp;temperature;humidity
18753;DHT22;9505;50.882;5.350;2023-11-18T00:00:49;4.70;99.90
18753;DHT22;9505;50.882;5.350;2023-11-18T00:03:14;4.70;99.90
18753;DHT22;9505;50.882;5.350;2023-11-18T00:05:40;4.70;99.90
18753;DHT22;9505;50.882;5.350;2023-11-18T00:08:06;4.70;99.90
18753;DHT22;9505;50.882;5.350;2023-11-18T00:10:32;4.70;99.90
18753;DHT22;9505;50.882;5.350;2023-11-18T00:12:57;4.70;99.90
18753;DHT22;9505;50.882;5.350;2023-11-18T00:15:23;4.70;99.90
18753;DHT22;9505;50.882;5.350;2023-11-18T00:17:48;4.70;99.90
18753;DHT22;9505;50.882;5.350;2023-11-18T00:20:14;4.70;99.90
18753;DHT22;9505;50.882;5.350;2023-11-18T00:22:41;4.70;99.90
18753;DHT22;9505;50.882;5.350;2023-11-18T00:25:08;4.70;99.90
18753;DHT22;9505;50.882;5.350;2023-11-18T00:27:34;4.70;99.90
18753;DHT22;9505;50.882;5.350;2023-11-18T00:30:03;4.70;99.90
18753;DHT22;9505;50.882;5.350;2023-11-18T00:32:31;4.70;99.90
18753;DHT22;9505;50.882;5.350;2023-11-18T00:34:57;4.70;99.90
18753;DHT22;9505;50.882;5.350;2023-11-18T00:37:22;4.80;99.90
18753;DHT22;9505;50.882;5.350;2023-11-18T00:39:48;4.70;99.90
18753;DHT22;9505;50.882;5.350;2023-11-18T00:42:14;4.70;99.90
18753;DHT22;9505;50.882;5.350;2023-11-18T00:44:39;4.60;99.90
18753;DHT22;9505;50.882;5.350;2023-11-18T00:47:05;4.60;99.90
18753;DHT22;9505;50.882;5.350;2023-11-18T00:49:31;4.60;99.90
18753;DHT22;9505;50.882;5.350;2023-11-18T00:51:56;4.60;99.90
18753;DHT22;9505;50.882;5.350;2023-11-18T00:54:22;4.50;99.90
18753;DHT22;9505;50.882;5.350;2023-11-18T00:56:48;4.50;99.90
18753;DHT22;9505;50.882;5.350;2023-11-18T00:59:13;4.50;99.90
18753;DHT22;9505;50.882;5.350;2023-11-18T01:01:39;4.50;99.90
18753;DHT22;9505;50.882;5.350;2023-11-18T01:04:05;4.40;99.90
18753;DHT22;9505;50.882;5.350;2023-11-18T01:06:31;4.40;99.90
18753;DHT22;9505;50.882;5.350;2023-11-18T01:08:57;4.40;99.90
18753;DHT22;9505;50.882;5.350;2023-11-18T01:11:23;4.40;99.90
18753;DHT22;9505;50.882;5.350;2023-11-18T01:13:49;4.50;99.90
18753;DHT22;9505;50.882;5.350;2023-11-18T01:16:15;4.40;99.90
18753;DHT22;9505;50.882;5.350;2023-11-18T01:18:42;4.50;99.90
18753;DHT22;9505;50.882;5.350;2023-11-18T01:21:08;4.50;99.90
18753;DHT22;9505;50.882;5.350;2023-11-18T01:23:36;4.60;99.90
18753;DHT22;9505;50.882;5.350;2023-11-18T01:26:03;4.60;99.90
18753;DHT22;9505;50.882;5.350;2023-11-18T01:28:34;4.60;99.90
18753;DHT22;9505;50.882;5.350;2023-11-18T01:31:06;4.60;99.90
18753;DHT22;9505;50.882;5.350;2023-11-18T01:33:39;4.70;99.90
18753;DHT22;9505;50.882;5.350;2023-11-18T01:36:06;4.70;99.90
18753;DHT22;9505;50.882;5.350;2023-11-18T01:38:34;4.70;99.90
18753;DHT22;9505;50.882;5.350;2023-11-18T01:41:00;4.70;99.90
18753;DHT22;9505;50.882;5.350;2023-11-18T01:43:26;4.70;99.90
18753;DHT22;9505;50.882;5.350;2023-11-18T01:45:52;4.80;99.90
18753;DHT22;9505;50.882;5.350;2023-11-18T01:48:19;4.80;99.90
18753;DHT22;9505;50.882;5.350;2023-11-18T01:50:45;4.80;99.90
18753;DHT22;9505;50.882;5.350;2023-11-18T01:53:12;4.70;99.90
18753;DHT22;9505;50.882;5.350;2023-11-18T01:55:39;4.80;99.90
18753;DHT22;9505;50.882;5.350;2023-11-18T01:58:05;4.80;99.90
18753;DHT22;9505;50.882;5.350;2023-11-18T02:00:41;4.80;99.90
18753;DHT22;9505;50.882;5.350;2023-11-18T02:03:07;4.80;99.90
18753;DHT22;9505;50.882;5.350;2023-11-18T02:05:35;4.80;99.90
18753;DHT22;9505;50.882;5.350;2023-11-18T02:08:03;4.80;99.90
18753;DHT22;9505;50.882;5.350;2023-11-18T02:10:31;4.80;99.90
18753;DHT22;9505;50.882;5.350;2023-11-18T02:13:11;4.80;99.90
18753;DHT22;9505;50.882;5.350;2023-11-18T02:15:38;4.80;99.90
18753;DHT22;9505;50.882;5.350;2023-11-18T02:18:06;4.70;99.90
18753;DHT22;9505;50.882;5.350;2023-11-18T02:20:36;4.70;99.90
18753;DHT22;9505;50.882;5.350;2023-11-18T02:23:02;4.80;99.90
18753;DHT22;9505;50.882;5.350;2023-11-18T02:25:29;4.80;99.90
18753;DHT22;9505;50.882;5.350;2023-11-18T02:27:58;4.80;99.90
18753;DHT22;9505;50.882;5.350;2023-11-18T02:30:24;4.80;99.90
18753;DHT22;9505;50.882;5.350;2023-11-18T02:33:07;4.80;99.90
18753;DHT22;9505;50.882;5.350;2023-11-18T02:35:53;4.80;99.90
18753;DHT22;9505;50.882;5.350;2023-11-18T02:38:33;4.80;99.90
18753;DHT22;9505;50.882;5.350;2023-11-18T02:41:06;4.70;99.90
18753;DHT22;9505;50.882;5.350;2023-11-18T02:43:35;4.70;99.90
18753;DHT22;9505;50.882;5.350;2023-11-18T02:46:04;4.70;99.90
18753;DHT22;9505;50.882;5.350;2023-11-18T02:48:32;4.70;99.90
18753;DHT22;9505;50.882;5.350;2023-11-18T02:50:58;4.70;99.90
18753;DHT22;9505;50.882;5.350;2023-11-18T02:53:24;4.60;99.90
18753;DHT22;9505;50.882;5.350;2023-11-18T02:55:50;4.60;99.90
18753;DHT22;9505;50.882;5.350;2023-11-18T02:58:18;4.50;99.90
18753;DHT22;9505;50.882;5.350;2023-11-18T03:00:43;4.50;99.90
18753;DHT22;9505;50.882;5.350;2023-11-18T03:03:10;4.40;99.90
18753;DHT22;9505;50.882;5.350;2023-11-18T03:05:36;4.40;99.90
18753;DHT22;9505;50.882;5.350;2023-11-18T03:08:02;4.30;99.90
18753;DHT22;9505;50.882;5.350;2023-11-18T03:10:34;4.30;99.90
18753;DHT22;9505;50.882;5.350;2023-11-18T03:13:01;4.30;99.90
18753;DHT22;9505;50.882;5.350;2023-11-18T03:15:26;4.30;99.90
18753;DHT22;9505;50.882;5.350;2023-11-18T03:17:52;4.30;99.90
18753;DHT22;9505;50.882;5.350;2023-11-18T03:20:19;4.30;99.90
18753;DHT22;9505;50.882;5.350;2023-11-18T03:22:46;4.40;99.90
18753;DHT22;9505;50.882;5.350;2023-11-18T03:25:12;4.50;99.90
18753;DHT22;9505;50.882;5.350;2023-11-18T03:27:38;4.50;99.90
18753;DHT22;9505;50.882;5.350;2023-11-18T03:30:05;4.50;99.90
18753;DHT22;9505;50.882;5.350;2023-11-18T03:32:32;4.60;99.90
18753;DHT22;9505;50.882;5.350;2023-11-18T03:34:58;4.60;99.90
18753;DHT22;9505;50.882;5.350;2023-11-18T03:37:26;4.70;99.90
18753;DHT22;9505;50.882;5.350;2023-11-18T03:39:52;4.70;99.90
18753;DHT22;9505;50.882;5.350;2023-11-18T03:42:18;4.70;99.90
18753;DHT22;9505;50.882;5.350;2023-11-18T03:44:44;4.70;99.90
18753;DHT22;9505;50.882;5.350;2023-11-18T03:47:13;4.70;99.90
18753;DHT22;9505;50.882;5.350;2023-11-18T03:49:39;4.80;99.90
18753;DHT22;9505;50.882;5.350;2023-11-18T03:52:05;4.80;99.90
18753;DHT22;9505;50.882;5.350;2023-11-18T03:54:31;4.80;99.90
18753;DHT22;9505;50.882;5.350;2023-11-18T03:56:57;4.80;99.90
18753;DHT22;9505;50.882;5.350;2023-11-18T03:59:22;4.90;99.90
18753;DHT22;9505;50.882;5.350;2023-11-18T04:01:48;4.90;99.90
18753;DHT22;9505;50.882;5.350;2023-11-18T04:04:16;4.90;99.90
18753;DHT22;9505;50.882;5.350;2023-11-18T04:06:42;4.90;99.90
18753;DHT22;9505;50.882;5.350;2023-11-18T04:09:08;4.90;99.90
18753;DHT22;9505;50.882;5.350;2023-11-18T04:11:35;5.00;99.90
18753;DHT22;9505;50.882;5.350;2023-11-18T04:14:01;5.00;99.90
18753;DHT22;9505;50.882;5.350;2023-11-18T04:16:28;5.00;99.90
18753;DHT22;9505;50.882;5.350;2023-11-18T04:18:54;5.00;99.90
18753;DHT22;9505;50.882;5.350;2023-11-18T04:21:20;5.00;99.90
18753;DHT22;9505;50.882;5.350;2023-11-18T04:23:45;5.00;99.90
18753;DHT22;9505;50.882;5.350;2023-11-18T04:26:12;5.00;99.90
18753;DHT22;9505;50.882;5.350;2023-11-18T04:28:38;5.10;99.90
18753;DHT22;9505;50.882;5.350;2023-11-18T04:31:04;5.10;99.90
18753;DHT22;9505;50.882;5.350;2023-11-18T04:33:33;5.20;99.90
18753;DHT22;9505;50.882;5.350;2023-11-18T04:35:59;5.20;99.90
18753;DHT22;9505;50.882;5.350;2023-11-18T04:38:25;5.20;99.90
18753;DHT22;9505;50.882;5.350;2023-11-18T04:40:54;5.30;99.90
18753;DHT22;9505;50.882;5.350;2023-11-18T04:43:21;5.30;99.90
18753;DHT22;9505;50.882;5.350;2023-11-18T04:45:47;5.40;99.90
18753;DHT22;9505;50.882;5.350;2023-11-18T04:48:13;5.40;99.90
18753;DHT22;9505;50.882;5.350;2023-11-18T04:50:42;5.50;99.90
18753;DHT22;9505;50.882;5.350;2023-11-18T04:53:08;5.50;99.90
18753;DHT22;9505;50.882;5.350;2023-11-18T04:55:35;5.50;99.90
18753;DHT22;9505;50.882;5.350;2023-11-18T04:58:01;5.50;99.90
18753;DHT22;9505;50.882;5.350;2023-11-18T05:00:28;5.60;99.90
18753;DHT22;9505;50.882;5.350;2023-11-18T05:02:54;5.70;99.90
18753;DHT22;9505;50.882;5.350;2023-11-18T05:05:20;5.70;99.90
18753;DHT22;9505;50.882;5.350;2023-11-18T05:07:47;5.80;99.90
18753;DHT22;9505;50.882;5.350;2023-11-18T05:10:13;5.90;99.90
18753;DHT22;9505;50.882;5.350;2023-11-18T05:12:39;5.90;99.90
18753;DHT22;9505;50.882;5.350;2023-11-18T05:15:09;6.00;99.90
18753;DHT22;9505;50.882;5.350;2023-11-18T05:17:36;6.10;99.90
18753;DHT22;9505;50.882;5.350;2023-11-18T05:20:02;6.10;99.90
18753;DHT22;9505;50.882;5.350;2023-11-18T05:22:29;6.10;99.90
18753;DHT22;9505;50.882;5.350;2023-11-18T05:24:54;6.20;99.90
18753;DHT22;9505;50.882;5.350;2023-11-18T05:27:20;6.20;99.90
18753;DHT22;9505;50.882;5.350;2023-11-18T05:29:45;6.30;99.90
18753;DHT22;9505;50.882;5.350;2023-11-18T05:32:14;6.40;99.90
18753;DHT22;9505;50.882;5.350;2023-11-18T05:34:39;6.40;99.90
18753;DHT22;9505;50.882;5.350;2023-11-18T05:37:05;6.40;99.90
18753;DHT22;9505;50.882;5.350;2023-11-18T05:39:31;6.40;99.90
18753;DHT22;9505;50.882;5.350;2023-11-18T05:41:57;6.40;99.90
18753;DHT22;9505;50.882;5.350;2023-11-18T05:44:23;6.40;99.90
18753;DHT22;9505;50.882;5.350;2023-11-18T05:46:59;6.50;99.90
18753;DHT22;9505;50.882;5.350;2023-11-18T05:49:25;6.50;99.90
18753;DHT22;9505;50.882;5.350;2023-11-18T05:51:51;6.50;99.90
18753;DHT22;9505;50.882;5.350;2023-11-18T05:54:17;6.50;99.90
18753;DHT22;9505;50.882;5.350;2023-11-18T05:56:43;6.50;99.90
18753;DHT22;9505;50.882;5.350;2023-11-18T05:59:09;6.60;99.90
18753;DHT22;9505;50.882;5.350;2023-11-18T06:01:36;6.60;99.90
18753;DHT22;9505;50.882;5.350;2023-11-18T06:04:03;6.60;99.90
18753;DHT22;9505;50.882;5.350;2023-11-18T06:06:28;6.70;99.90
18753;DHT22;9505;50.882;5.350;2023-11-18T06:08:54;6.70;99.90
18753;DHT22;9505;50.882;5.350;2023-11-18T06:11:20;6.70;99.90
18753;DHT22;9505;50.882;5.350;2023-11-18T06:13:50;6.70;99.90
18753;DHT22;9505;50.882;5.350;2023-11-18T06:16:21;6.70;99.90
18753;DHT22;9505;50.882;5.350;2023-11-18T06:18:48;6.70;99.90
18753;DHT22;9505;50.882;5.350;2023-11-18T06:21:15;6.70;99.90
18753;DHT22;9505;50.882;5.350;2023-11-18T06:23:42;6.80;99.90
18753;DHT22;9505;50.882;5.350;2023-11-18T06:26:08;6.70;99.90
18753;DHT22;9505;50.882;5.350;2023-11-18T06:28:40;6.80;99.90
18753;DHT22;9505;50.882;5.350;2023-11-18T06:31:06;6.80;99.90
18753;DHT22;9505;50.882;5.350;2023-11-18T06:33:43;6.80;99.90
18753;DHT22;9505;50.882;5.350;2023-11-18T06:38:38;6.90;99.90
18753;DHT22;9505;50.882;5.350;2023-11-18T06:41:04;6.90;99.90
18753;DHT22;9505;50.882;5.350;2023-11-18T06:43:31;6.90;99.90
18753;DHT22;9505;50.882;5.350;2023-11-18T06:46:14;7.00;99.90
18753;DHT22;9505;50.882;5.350;2023-11-18T06:48:40;7.10;99.90
18753;DHT22;9505;50.882;5.350;2023-11-18T06:51:06;7.10;99.90
18753;DHT22;9505;50.882;5.350;2023-11-18T06:53:34;7.10;99.90
18753;DHT22;9505;50.882;5.350;2023-11-18T06:56:00;7.10;99.90
18753;DHT22;9505;50.882;5.350;2023-11-18T06:58:25;7.20;99.90
18753;DHT22;9505;50.882;5.350;2023-11-18T07:00:52;7.20;99.90
18753;DHT22;9505;50.882;5.350;2023-11-18T07:03:18;7.30;99.90
18753;DHT22;9505;50.882;5.350;2023-11-18T07:05:43;7.30;99.90
18753;DHT22;9505;50.882;5.350;2023-11-18T07:08:09;7.30;99.90
18753;DHT22;9505;50.882;5.350;2023-11-18T07:10:35;7.30;99.90
18753;DHT22;9505;50.882;5.350;2023-11-18T07:13:01;7.30;99.90
18753;DHT22;9505;50.882;5.350;2023-11-18T07:15:27;7.40;99.90
18753;DHT22;9505;50.882;5.350;2023-11-18T07:17:53;7.40;99.90
18753;DHT22;9505;50.882;5.350;2023-11-18T07:20:18;7.50;99.90
18753;DHT22;9505;50.882;5.350;2023-11-18T07:22:44;7.50;99.90
18753;DHT22;9505;50.882;5.350;2023-11-18T07:25:10;7.50;99.90
18753;DHT22;9505;50.882;5.350;2023-11-18T07:27:36;7.60;99.90
18753;DHT22;9505;50.882;5.350;2023-11-18T07:30:02;7.60;99.90
18753;DHT22;9505;50.882;5.350;2023-11-18T07:32:31;7.60;99.90
18753;DHT22;9505;50.882;5.350;2023-11-18T07:34:58;7.70;99.90
18753;DHT22;9505;50.882;5.350;2023-11-18T07:37:23;7.70;99.90
18753;DHT22;9505;50.882;5.350;2023-11-18T07:39:49;7.80;99.90
18753;DHT22;9505;50.882;5.350;2023-11-18T07:42:14;7.80;99.90
18753;DHT22;9505;50.882;5.350;2023-11-18T07:44:41;7.80;99.90
18753;DHT22;9505;50.882;5.350;2023-11-18T07:47:06;7.80;99.90
18753;DHT22;9505;50.882;5.350;2023-11-18T07:49:35;7.80;99.90
18753;DHT22;9505;50.882;5.350;2023-11-18T07:52:04;7.90;99.90
18753;DHT22;9505;50.882;5.350;2023-11-18T07:54:29;7.90;99.90
18753;DHT22;9505;50.882;5.350;2023-11-18T07:56:55;7.90;99.90
18753;DHT22;9505;50.882;5.350;2023-11-18T07:59:21;8.00;99.90
18753;DHT22;9505;50.882;5.350;2023-11-18T08:01:47;8.00;99.90
18753;DHT22;9505;50.882;5.350;2023-11-18T08:04:14;8.00;99.90
18753;DHT22;9505;50.882;5.350;2023-11-18T08:06:40;8.00;99.90
18753;DHT22;9505;50.882;5.350;2023-11-18T08:09:06;8.00;99.90
18753;DHT22;9505;50.882;5.350;2023-11-18T08:11:40;8.00;99.90
18753;DHT22;9505;50.882;5.350;2023-11-18T08:14:10;7.90;99.90
18753;DHT22;9505;50.882;5.350;2023-11-18T08:16:35;7.80;99.90
18753;DHT22;9505;50.882;5.350;2023-11-18T08:19:04;7.80;99.90
18753;DHT22;9505;50.882;5.350;2023-11-18T08:21:36;7.80;99.90
18753;DHT22;9505;50.882;5.350;2023-11-18T08:24:05;7.90;99.90
18753;DHT22;9505;50.882;5.350;2023-11-18T08:26:34;7.90;99.90
18753;DHT22;9505;50.882;5.350;2023-11-18T08:28:59;7.90;99.90
18753;DHT22;9505;50.882;5.350;2023-11-18T08:31:26;7.90;99.90
18753;DHT22;9505;50.882;5.350;2023-11-18T08:33:52;7.90;99.90
18753;DHT22;9505;50.882;5.350;2023-11-18T08:36:20;7.90;99.90
18753;DHT22;9505;50.882;5.350;2023-11-18T08:38:48;7.90;99.90
18753;DHT22;9505;50.882;5.350;2023-11-18T08:41:13;7.90;99.90
18753;DHT22;9505;50.882;5.350;2023-11-18T08:43:39;8.00;99.90
18753;DHT22;9505;50.882;5.350;2023-11-18T08:46:06;8.00;99.90
18753;DHT22;9505;50.882;5.350;2023-11-18T08:48:33;8.00;99.90
18753;DHT22;9505;50.882;5.350;2023-11-18T08:51:01;8.00;99.90
18753;DHT22;9505;50.882;5.350;2023-11-18T08:53:27;8.00;99.90
18753;DHT22;9505;50.882;5.350;2023-11-18T08:55:53;7.90;99.90
18753;DHT22;9505;50.882;5.350;2023-11-18T08:58:22;7.90;99.90
18753;DHT22;9505;50.882;5.350;2023-11-18T09:00:48;7.90;99.90
18753;DHT22;9505;50.882;5.350;2023-11-18T09:03:19;8.00;99.90
18753;DHT22;9505;50.882;5.350;2023-11-18T09:05:57;8.00;99.90
18753;DHT22;9505;50.882;5.350;2023-11-18T09:08:27;8.00;99.90
18753;DHT22;9505;50.882;5.350;2023-11-18T09:10:53;8.00;99.90
18753;DHT22;9505;50.882;5.350;2023-11-18T09:13:24;8.10;99.90
18753;DHT22;9505;50.882;5.350;2023-11-18T09:15:57;8.00;99.90
18753;DHT22;9505;50.882;5.350;2023-11-18T09:18:26;8.00;99.90
18753;DHT22;9505;50.882;5.350;2023-11-18T09:20:53;8.10;99.90
18753;DHT22;9505;50.882;5.350;2023-11-18T09:23:21;8.00;99.90
18753;DHT22;9505;50.882;5.350;2023-11-18T09:25:49;8.00;99.90
18753;DHT22;9505;50.882;5.350;2023-11-18T09:28:15;8.00;99.90
18753;DHT22;9505;50.882;5.350;2023-11-18T09:30:45;8.10;99.90
18753;DHT22;9505;50.882;5.350;2023-11-18T09:33:23;8.10;99.90
18753;DHT22;9505;50.882;5.350;2023-11-18T09:35:57;8.10;99.90
18753;DHT22;9505;50.882;5.350;2023-11-18T09:38:33;8.10;99.90
18753;DHT22;9505;50.882;5.350;2023-11-18T09:41:01;8.00;99.90
18753;DHT22;9505;50.882;5.350;2023-11-18T09:43:36;8.00;99.90
18753;DHT22;9505;50.882;5.350;2023-11-18T09:46:08;8.00;99.90
18753;DHT22;9505;50.882;5.350;2023-11-18T09:48:41;7.90;99.90
18753;DHT22;9505;50.882;5.350;2023-11-18T09:51:08;8.00;99.90
18753;DHT22;9505;50.882;5.350;2023-11-18T09:53:37;8.00;99.90
18753;DHT22;9505;50.882;5.350;2023-11-18T09:56:17;8.10;99.90
18753;DHT22;9505;50.882;5.350;2023-11-18T10:01:51;8.10;99.90
18753;DHT22;9505;50.882;5.350;2023-11-18T10:04:20;8.10;99.90
18753;DHT22;9505;50.882;5.350;2023-11-18T10:06:49;8.10;99.90
18753;DHT22;9505;50.882;5.350;2023-11-18T10:09:19;8.10;99.90
18753;DHT22;9505;50.882;5.350;2023-11-18T10:11:54;8.20;99.90
18753;DHT22;9505;50.882;5.350;2023-11-18T10:14:26;8.20;99.90
18753;DHT22;9505;50.882;5.350;2023-11-18T10:16:52;8.20;99.90
18753;DHT22;9505;50.882;5.350;2023-11-18T10:19:19;8.20;99.90
18753;DHT22;9505;50.882;5.350;2023-11-18T10:21:45;8.20;99.90
18753;DHT22;9505;50.882;5.350;2023-11-18T10:24:14;8.40;99.90
18753;DHT22;9505;50.882;5.350;2023-11-18T10:26:43;8.40;99.90
18753;DHT22;9505;50.882;5.350;2023-11-18T10:29:10;8.40;99.90
18753;DHT22;9505;50.882;5.350;2023-11-18T10:31:39;8.30;99.90
18753;DHT22;9505;50.882;5.350;2023-11-18T10:34:12;8.40;99.90
18753;DHT22;9505;50.882;5.350;2023-11-18T10:36:40;8.40;99.90
18753;DHT22;9505;50.882;5.350;2023-11-18T10:39:11;8.50;99.90
18753;DHT22;9505;50.882;5.350;2023-11-18T10:41:42;8.50;99.90
18753;DHT22;9505;50.882;5.350;2023-11-18T10:44:09;8.50;99.90
18753;DHT22;9505;50.882;5.350;2023-11-18T10:46:40;8.50;99.90
18753;DHT22;9505;50.882;5.350;2023-11-18T10:49:06;8.60;99.90
18753;DHT22;9505;50.882;5.350;2023-11-18T10:51:35;8.50;99.90
18753;DHT22;9505;50.882;5.350;2023-11-18T10:54:04;8.50;99.90
18753;DHT22;9505;50.882;5.350;2023-11-18T10:56:46;8.60;99.90
18753;DHT22;9505;50.882;5.350;2023-11-18T10:59:12;8.50;99.90
18753;DHT22;9505;50.882;5.350;2023-11-18T11:01:45;8.50;99.90
18753;DHT22;9505;50.882;5.350;2023-11-18T11:04:15;8.50;99.90
18753;DHT22;9505;50.882;5.350;2023-11-18T11:06:47;8.50;99.90
18753;DHT22;9505;50.882;5.350;2023-11-18T11:09:18;8.50;99.90
18753;DHT22;9505;50.882;5.350;2023-11-18T11:11:57;8.40;99.90
18753;DHT22;9505;50.882;5.350;2023-11-18T11:14:39;8.40;99.90
18753;DHT22;9505;50.882;5.350;2023-11-18T11:17:13;8.40;99.90
18753;DHT22;9505;50.882;5.350;2023-11-18T11:25:51;8.50;99.90
18753;DHT22;9505;50.882;5.350;2023-11-18T11:28:21;8.50;99.90
18753;DHT22;9505;50.882;5.350;2023-11-18T11:31:03;8.50;99.90
18753;DHT22;9505;50.882;5.350;2023-11-18T11:33:39;8.50;99.90
18753;DHT22;9505;50.882;5.350;2023-11-18T11:36:12;8.60;99.90
18753;DHT22;9505;50.882;5.350;2023-11-18T11:38:41;8.60;99.90
18753;DHT22;9505;50.882;5.350;2023-11-18T11:41:13;8.50;99.90
18753;DHT22;9505;50.882;5.350;2023-11-18T11:43:47;8.50;99.90
18753;DHT22;9505;50.882;5.350;2023-11-18T11:46:13;8.50;99.90
18753;DHT22;9505;50.882;5.350;2023-11-18T11:48:40;8.50;99.90
18753;DHT22;9505;50.882;5.350;2023-11-18T11:54:21;8.50;99.90
18753;DHT22;9505;50.882;5.350;2023-11-18T11:56:49;8.50;99.90
18753;DHT22;9505;50.882;5.350;2023-11-18T12:02:03;8.60;99.90
18753;DHT22;9505;50.882;5.350;2023-11-18T12:04:34;8.60;99.90
18753;DHT22;9505;50.882;5.350;2023-11-18T12:07:07;8.60;99.90
18753;DHT22;9505;50.882;5.350;2023-11-18T12:09:35;8.60;99.90
18753;DHT22;9505;50.882;5.350;2023-11-18T12:12:05;8.60;99.90
18753;DHT22;9505;50.882;5.350;2023-11-18T12:14:52;8.60;99.90
18753;DHT22;9505;50.882;5.350;2023-11-18T12:17:21;8.50;99.90
18753;DHT22;9505;50.882;5.350;2023-11-18T12:19:51;8.50;99.90
18753;DHT22;9505;50.882;5.350;2023-11-18T12:22:24;8.50;99.90
18753;DHT22;9505;50.882;5.350;2023-11-18T12:33:00;8.60;99.90
18753;DHT22;9505;50.882;5.350;2023-11-18T12:41:39;8.70;99.90
18753;DHT22;9505;50.882;5.350;2023-11-18T12:44:29;8.80;99.90
18753;DHT22;9505;50.882;5.350;2023-11-18T12:47:01;8.70;99.90
18753;DHT22;9505;50.882;5.350;2023-11-18T12:49:40;8.80;99.90
18753;DHT22;9505;50.882;5.350;2023-11-18T12:52:10;8.80;99.90
18753;DHT22;9505;50.882;5.350;2023-11-18T12:54:37;8.80;99.90
18753;DHT22;9505;50.882;5.350;2023-11-18T12:57:04;8.80;99.90
18753;DHT22;9505;50.882;5.350;2023-11-18T12:59:36;8.90;99.90
18753;DHT22;9505;50.882;5.350;2023-11-18T13:02:21;8.90;99.90
18753;DHT22;9505;50.882;5.350;2023-11-18T13:04:49;8.90;99.90
18753;DHT22;9505;50.882;5.350;2023-11-18T13:07:19;9.00;99.90
18753;DHT22;9505;50.882;5.350;2023-11-18T13:09:46;8.90;99.90
18753;DHT22;9505;50.882;5.350;2023-11-18T13:12:13;8.90;99.90
18753;DHT22;9505;50.882;5.350;2023-11-18T13:14:42;8.90;99.90
18753;DHT22;9505;50.882;5.350;2023-11-18T13:17:12;8.90;99.90
18753;DHT22;9505;50.882;5.350;2023-11-18T13:19:42;8.90;99.90
18753;DHT22;9505;50.882;5.350;2023-11-18T13:22:13;8.80;99.90
18753;DHT22;9505;50.882;5.350;2023-11-18T13:24:40;8.70;99.90
18753;DHT22;9505;50.882;5.350;2023-11-18T13:27:08;8.70;99.90
18753;DHT22;9505;50.882;5.350;2023-11-18T13:29:38;8.70;99.90
18753;DHT22;9505;50.882;5.350;2023-11-18T13:32:08;8.80;99.90
18753;DHT22;9505;50.882;5.350;2023-11-18T13:34:35;8.70;99.90
18753;DHT22;9505;50.882;5.350;2023-11-18T13:37:06;8.70;99.90
18753;DHT22;9505;50.882;5.350;2023-11-18T13:39:33;8.80;99.90
18753;DHT22;9505;50.882;5.350;2023-11-18T13:42:01;8.80;99.90
18753;DHT22;9505;50.882;5.350;2023-11-18T13:44:43;8.80;99.90
18753;DHT22;9505;50.882;5.350;2023-11-18T13:47:10;8.70;99.90
18753;DHT22;9505;50.882;5.350;2023-11-18T13:49:39;8.70;99.90
18753;DHT22;9505;50.882;5.350;2023-11-18T13:52:08;8.70;99.90
18753;DHT22;9505;50.882;5.350;2023-11-18T13:54:36;8.60;99.90
18753;DHT22;9505;50.882;5.350;2023-11-18T13:57:03;8.70;99.90
18753;DHT22;9505;50.882;5.350;2023-11-18T13:59:29;8.70;99.90
18753;DHT22;9505;50.882;5.350;2023-11-18T14:01:56;8.70;99.90
18753;DHT22;9505;50.882;5.350;2023-11-18T14:04:26;8.70;99.90
18753;DHT22;9505;50.882;5.350;2023-11-18T14:06:56;8.70;99.90
18753;DHT22;9505;50.882;5.350;2023-11-18T14:09:22;8.70;99.90
18753;DHT22;9505;50.882;5.350;2023-11-18T14:11:51;8.70;99.90
18753;DHT22;9505;50.882;5.350;2023-11-18T14:14:16;8.70;99.90
18753;DHT22;9505;50.882;5.350;2023-11-18T14:16:43;8.80;99.90
18753;DHT22;9505;50.882;5.350;2023-11-18T14:19:09;8.80;99.90
18753;DHT22;9505;50.882;5.350;2023-11-18T14:21:36;8.90;99.90
18753;DHT22;9505;50.882;5.350;2023-11-18T14:24:02;8.90;99.90
18753;DHT22;9505;50.882;5.350;2023-11-18T14:26:29;8.80;99.90
18753;DHT22;9505;50.882;5.350;2023-11-18T14:28:56;8.80;99.90
18753;DHT22;9505;50.882;5.350;2023-11-18T14:31:24;8.80;99.90
18753;DHT22;9505;50.882;5.350;2023-11-18T14:33:50;8.90;99.90
18753;DHT22;9505;50.882;5.350;2023-11-18T14:36:17;8.90;99.90
18753;DHT22;9505;50.882;5.350;2023-11-18T14:38:42;9.00;99.90
18753;DHT22;9505;50.882;5.350;2023-11-18T14:41:10;9.00;99.90
18753;DHT22;9505;50.882;5.350;2023-11-18T14:43:36;9.00;99.90
18753;DHT22;9505;50.882;5.350;2023-11-18T14:46:02;9.00;99.90
18753;DHT22;9505;50.882;5.350;2023-11-18T14:48:29;9.00;99.90
18753;DHT22;9505;50.882;5.350;2023-11-18T14:50:55;9.00;99.90
18753;DHT22;9505;50.882;5.350;2023-11-18T14:53:22;8.90;99.90
18753;DHT22;9505;50.882;5.350;2023-11-18T14:55:48;9.00;99.90
18753;DHT22;9505;50.882;5.350;2023-11-18T14:58:14;9.00;99.90
18753;DHT22;9505;50.882;5.350;2023-11-18T15:00:40;9.00;99.90
18753;DHT22;9505;50.882;5.350;2023-11-18T15:03:07;9.00;99.90
18753;DHT22;9505;50.882;5.350;2023-11-18T15:05:33;9.00;99.90
18753;DHT22;9505;50.882;5.350;2023-11-18T15:08:00;9.00;99.90
18753;DHT22;9505;50.882;5.350;2023-11-18T15:10:27;9.10;99.90
18753;DHT22;9505;50.882;5.350;2023-11-18T15:12:57;9.10;99.90
18753;DHT22;9505;50.882;5.350;2023-11-18T15:15:31;9.10;99.90
18753;DHT22;9505;50.882;5.350;2023-11-18T15:18:04;9.10;99.90
18753;DHT22;9505;50.882;5.350;2023-11-18T15:20:46;9.10;99.90
18753;DHT22;9505;50.882;5.350;2023-11-18T15:23:13;9.20;99.90
18753;DHT22;9505;50.882;5.350;2023-11-18T15:25:39;9.20;99.90
18753;DHT22;9505;50.882;5.350;2023-11-18T15:28:06;9.20;99.90
18753;DHT22;9505;50.882;5.350;2023-11-18T15:30:39;9.20;99.90
18753;DHT22;9505;50.882;5.350;2023-11-18T15:33:08;9.30;99.90
18753;DHT22;9505;50.882;5.350;2023-11-18T15:35:35;9.20;99.90
18753;DHT22;9505;50.882;5.350;2023-11-18T15:38:12;9.10;99.90
18753;DHT22;9505;50.882;5.350;2023-11-18T15:40:42;9.20;99.90
18753;DHT22;9505;50.882;5.350;2023-11-18T15:43:08;9.10;99.90
18753;DHT22;9505;50.882;5.350;2023-11-18T15:45:37;9.20;99.90
18753;DHT22;9505;50.882;5.350;2023-11-18T15:48:03;9.20;99.90
18753;DHT22;9505;50.882;5.350;2023-11-18T15:50:36;9.20;99.90
18753;DHT22;9505;50.882;5.350;2023-11-18T15:53:03;9.20;99.90
18753;DHT22;9505;50.882;5.350;2023-11-18T15:55:31;9.20;99.90
18753;DHT22;9505;50.882;5.350;2023-11-18T15:57:57;9.20;99.90
18753;DHT22;9505;50.882;5.350;2023-11-18T16:00:24;9.30;99.90
18753;DHT22;9505;50.882;5.350;2023-11-18T16:02:55;9.30;99.90
18753;DHT22;9505;50.882;5.350;2023-11-18T16:05:23;9.30;99.90
18753;DHT22;9505;50.882;5.350;2023-11-18T16:07:50;9.20;99.90
18753;DHT22;9505;50.882;5.350;2023-11-18T16:10:16;9.30;99.90
18753;DHT22;9505;50.882;5.350;2023-11-18T16:12:52;9.30;99.90
18753;DHT22;9505;50.882;5.350;2023-11-18T16:15:23;9.40;99.90
18753;DHT22;9505;50.882;5.350;2023-11-18T16:17:50;9.40;99.90
18753;DHT22;9505;50.882;5.350;2023-11-18T16:20:17;9.40;99.90
18753;DHT22;9505;50.882;5.350;2023-11-18T16:22:48;9.40;99.90
18753;DHT22;9505;50.882;5.350;2023-11-18T16:27:53;9.50;99.90
18753;DHT22;9505;50.882;5.350;2023-11-18T16:30:20;9.40;99.90
18753;DHT22;9505;50.882;5.350;2023-11-18T16:32:51;9.40;99.90
18753;DHT22;9505;50.882;5.350;2023-11-18T16:35:17;9.50;99.90
18753;DHT22;9505;50.882;5.350;2023-11-18T16:37:43;9.60;99.90
18753;DHT22;9505;50.882;5.350;2023-11-18T16:40:12;9.50;99.90
18753;DHT22;9505;50.882;5.350;2023-11-18T16:42:51;9.60;99.90